Time;durP1;ratioP1;P1;durP2;ratioP2;P2;SDS_P1;SDS_P2;PMS_P1;PMS_P2;Temp;Humidity;BMP_temperature;BMP_pressure;BME280_temperature;BME280_humidity;BME280_pressure;Samples;Min_cycle;Max_cycle;Signal;HPM_P1;HPM_P2
2022/11/09 06:23:18;;;;;;;;;1.00;0.33;;;;;18.38;58.66;100704.41;5047709;27;45817;-76
2022/11/09 06:25:43;;;;;;;;;2.00;0.00;;;;;18.51;59.07;100696.97;5043749;28;45466;-76
2022/11/09 06:28:08;;;;;;;;;1.00;1.00;;;;;18.72;58.98;100698.72;5047129;28;45560;-75
2022/11/09 06:30:34;;;;;;;;;0.00;0.00;;;;;18.97;59.16;100701.91;5046117;28;52528;-76
2022/11/09 06:33:00;;;;;;;;;1.00;1.00;;;;;19.26;58.35;100701.13;5048985;28;48090;-76
2022/11/09 06:35:26;;;;;;;;;2.33;1.00;;;;;19.58;57.66;100718.81;5048161;28;45438;-75
2022/11/09 06:37:58;;;;;;;;;0.00;0.00;;;;;19.90;57.73;100713.25;5043412;28;45668;-75
2022/11/09 06:40:24;;;;;;;;;1.00;1.00;;;;;20.16;57.08;100718.03;5050887;28;45541;-74
2022/11/09 06:42:50;;;;;;;;;0.00;0.00;;;;;20.46;56.18;100719.63;5048324;28;46593;-74
2022/11/09 06:45:15;;;;;;;;;2.33;1.00;;;;;20.73;56.19;100709.88;5048245;28;45658;-73
2022/11/09 06:47:40;;;;;;;;;0.67;0.00;;;;;20.99;55.53;100722.66;5059838;28;45395;-73
2022/11/09 06:50:06;;;;;;;;;0.00;0.00;;;;;21.22;55.37;100718.66;5049699;28;46426;-74
2022/11/09 06:52:31;;;;;;;;;0.67;0.67;;;;;21.43;54.83;100723.75;5050208;28;45428;-74
2022/11/09 06:54:56;;;;;;;;;0.00;0.00;;;;;21.62;54.48;100733.53;5046832;28;60875;-75
2022/11/09 06:57:22;;;;;;;;;1.00;0.00;;;;;21.81;54.04;100731.69;5050683;28;45488;-74
2022/11/09 06:59:47;;;;;;;;;1.00;1.00;;;;;21.95;53.83;100728.41;5048702;28;45511;-75
2022/11/09 07:02:18;;;;;;;;;0.33;0.33;;;;;22.12;53.46;100733.94;5050498;28;46220;-75
2022/11/09 07:04:44;;;;;;;;;1.00;1.00;;;;;22.25;52.83;100738.91;5049326;28;45501;-74
2022/11/09 07:07:09;;;;;;;;;0.00;0.00;;;;;22.38;53.30;100736.63;5048022;28;45702;-74
2022/11/09 07:09:34;;;;;;;;;0.67;0.67;;;;;22.47;53.16;100740.19;5048064;28;45976;-77
2022/11/09 07:11:59;;;;;;;;;1.00;1.00;;;;;22.57;52.51;100737.41;5049069;28;46425;-79
2022/11/09 07:14:25;;;;;;;;;0.00;0.00;;;;;22.71;52.15;100744.06;5050768;28;45446;-77
2022/11/09 07:16:50;;;;;;;;;1.00;1.00;;;;;22.81;52.09;100748.50;5049331;28;51070;-78
2022/11/09 07:19:15;;;;;;;;;1.67;1.00;;;;;22.95;51.87;100755.97;5047584;28;47349;-76
2022/11/09 07:21:41;;;;;;;;;0.00;0.00;;;;;23.08;52.23;100752.78;5049003;28;45551;-79
2022/11/09 07:24:06;;;;;;;;;2.00;1.00;;;;;23.19;51.71;100751.66;5044921;28;57245;-75
2022/11/09 07:26:31;;;;;;;;;0.00;0.00;;;;;23.30;51.63;100761.31;5048029;28;45482;-75
2022/11/09 07:28:57;;;;;;;;;0.67;0.00;;;;;23.39;51.44;100767.63;5045801;28;45419;-76
2022/11/09 07:31:22;;;;;;;;;1.00;1.00;;;;;23.49;51.32;100772.88;5046033;28;46112;-75
2022/11/09 07:33:49;;;;;;;;;0.33;0.33;;;;;23.61;51.13;100786.94;5038251;28;45688;-75
2022/11/09 07:36:14;;;;;;;;;0.00;0.00;;;;;23.71;50.88;100795.78;5034604;28;45703;-77
2022/11/09 07:38:39;;;;;;;;;1.33;0.00;;;;;23.84;50.84;100797.09;5036924;28;45374;-75
2022/11/09 07:41:04;;;;;;;;;1.33;0.33;;;;;23.94;50.45;100801.34;5034533;28;53200;-77
2022/11/09 07:43:30;;;;;;;;;0.67;0.67;;;;;24.03;50.14;100810.31;5034811;28;46399;-77
2022/11/09 07:45:56;;;;;;;;;0.00;0.00;;;;;24.11;49.79;100806.78;5035208;28;45403;-77
2022/11/09 07:48:21;;;;;;;;;1.00;1.00;;;;;24.19;49.54;100808.63;5038235;28;45435;-78
2022/11/09 07:50:47;;;;;;;;;0.33;0.33;;;;;24.21;49.81;100809.31;5035697;28;45652;-78
2022/11/09 07:53:14;;;;;;;;;0.00;0.00;;;;;24.25;49.67;100807.09;5037116;28;45738;-76
2022/11/09 07:55:39;;;;;;;;;0.00;0.00;;;;;24.27;49.56;100814.06;5033487;28;45531;-77
2022/11/09 07:58:10;;;;;;;;;1.00;1.00;;;;;24.29;49.27;100809.31;5036755;28;45424;-75
2022/11/09 08:00:37;;;;;;;;;1.00;1.00;;;;;24.30;49.46;100818.28;5031823;28;46649;-76
2022/11/09 08:03:03;;;;;;;;;1.00;1.00;;;;;24.31;49.58;100814.53;5035460;28;45348;-77
2022/11/09 08:05:29;;;;;;;;;1.33;1.00;;;;;24.33;49.65;100807.09;5036673;28;45471;-76
2022/11/09 08:07:56;;;;;;;;;2.00;2.00;;;;;24.35;49.83;100810.47;5046147;28;45447;-77
2022/11/09 08:10:22;;;;;;;;;1.00;1.00;;;;;24.39;49.88;100813.72;5036128;28;45604;-75
2022/11/09 08:12:58;;;;;;;;;1.33;1.00;;;;;24.43;49.55;100824.03;5033461;28;45480;-76
2022/11/09 08:15:24;;;;;;;;;1.00;1.00;;;;;24.47;49.65;100821.81;5036109;28;45399;-75
2022/11/09 08:17:49;;;;;;;;;0.00;0.00;;;;;24.52;49.82;100821.31;5024252;28;45357;-75
2022/11/09 08:20:15;;;;;;;;;1.00;1.00;;;;;24.55;50.08;100820.94;5035853;28;45496;-76
2022/11/09 08:22:42;;;;;;;;;1.00;1.00;;;;;24.59;49.60;100819.56;5033806;28;45481;-77
2022/11/09 08:25:08;;;;;;;;;1.00;1.00;;;;;24.64;49.62;100824.50;5036655;28;45537;-77
2022/11/09 08:27:38;;;;;;;;;0.00;0.00;;;;;24.66;49.74;100820.59;5031858;28;45389;-76
2022/11/09 08:30:05;;;;;;;;;1.67;0.00;;;;;24.69;49.44;100820.22;5034628;28;45469;-77
2022/11/09 08:32:30;;;;;;;;;1.00;1.00;;;;;24.72;49.27;100816.31;5034645;28;45548;-76
2022/11/09 08:34:56;;;;;;;;;1.67;1.00;;;;;24.76;49.41;100824.97;5040395;28;45444;-75
2022/11/09 08:37:21;;;;;;;;;0.67;0.67;;;;;24.77;49.58;100821.22;5036886;28;45491;-75
2022/11/09 08:39:46;;;;;;;;;0.33;0.33;;;;;24.78;49.46;100823.78;5035154;28;55888;-75
2022/11/09 08:42:12;;;;;;;;;2.00;0.00;;;;;24.78;49.70;100831.91;5034967;28;45411;-75
2022/11/09 08:44:37;;;;;;;;;2.33;1.00;;;;;24.79;49.40;100830.03;5034244;28;45591;-75
2022/11/09 08:47:02;;;;;;;;;2.33;1.33;;;;;24.79;49.61;100840.88;5033864;28;51721;-78
2022/11/09 08:49:28;;;;;;;;;0.00;0.00;;;;;24.82;49.90;100845.97;5031897;28;45775;-78
2022/11/09 08:51:53;;;;;;;;;0.00;0.00;;;;;24.83;49.64;100840.41;5035187;28;45430;-78
2022/11/09 08:54:18;;;;;;;;;0.00;0.00;;;;;24.88;49.26;100847.19;5033288;28;54768;-78
2022/11/09 08:56:45;;;;;;;;;1.00;1.00;;;;;24.94;49.70;100852.75;5033494;28;45757;-78
2022/11/09 08:59:11;;;;;;;;;0.67;0.33;;;;;24.98;49.76;100854.09;5026049;28;45567;-78
2022/11/09 09:01:36;;;;;;;;;1.00;1.00;;;;;25.04;49.57;100866.13;5032235;28;45532;-76
2022/11/09 09:04:01;;;;;;;;;0.00;0.00;;;;;25.08;49.42;100862.03;5033929;28;45352;-78
2022/11/09 09:06:26;;;;;;;;;1.00;1.00;;;;;25.10;48.82;100862.69;5034497;28;45275;-76
2022/11/09 09:08:52;;;;;;;;;2.00;1.00;;;;;25.10;48.98;100859.16;5029987;28;45425;-74
2022/11/09 09:11:17;;;;;;;;;1.00;1.00;;;;;25.11;49.13;100869.84;5032826;28;45726;-75
2022/11/09 09:13:42;;;;;;;;;2.33;0.00;;;;;25.13;48.92;100878.63;5034117;28;45364;-75
2022/11/09 09:16:13;;;;;;;;;0.00;0.00;;;;;25.13;49.38;100884.06;5029424;28;45490;-76
2022/11/09 09:18:38;;;;;;;;;0.33;0.33;;;;;25.14;48.77;100879.50;5033532;28;46091;-77
2022/11/09 09:21:06;;;;;;;;;2.00;0.00;;;;;25.15;49.12;100892.06;5034409;28;45409;-77
2022/11/09 09:23:31;;;;;;;;;1.00;1.00;;;;;25.16;48.92;100887.44;5034347;28;45367;-78
2022/11/09 09:25:56;;;;;;;;;0.00;0.00;;;;;25.15;49.10;100885.75;5033376;28;50066;-77
2022/11/09 09:28:22;;;;;;;;;0.00;0.00;;;;;25.13;48.71;100884.06;5028384;28;46022;-77
2022/11/09 09:30:47;;;;;;;;;1.00;1.00;;;;;25.14;48.83;100890.38;5026234;28;46104;-76
2022/11/09 09:33:12;;;;;;;;;0.00;0.00;;;;;25.12;49.00;100890.53;5032426;28;45644;-76
2022/11/09 09:35:38;;;;;;;;;0.33;0.33;;;;;25.14;48.99;100887.66;5025895;28;45408;-75
2022/11/09 09:38:03;;;;;;;;;1.00;1.00;;;;;25.15;48.98;100894.75;5030055;28;57186;-75
2022/11/09 09:40:35;;;;;;;;;1.00;0.00;;;;;25.18;49.34;100899.81;5030603;28;45671;-75
2022/11/09 09:43:01;;;;;;;;;0.00;0.00;;;;;25.22;49.15;100897.63;5032708;28;45584;-76
2022/11/09 09:45:34;;;;;;;;;2.00;0.67;;;;;25.27;49.39;100901.47;5033086;28;45504;-75
2022/11/09 09:48:14;;;;;;;;;0.00;0.00;;;;;25.35;49.13;100907.91;5033995;28;45461;-76
2022/11/09 09:50:49;;;;;;;;;3.67;0.33;;;;;25.39;49.09;100910.09;5033993;28;45361;-75
2022/11/09 09:53:20;;;;;;;;;0.00;0.00;;;;;25.45;49.00;100904.97;5031179;28;45532;-75
2022/11/09 09:55:52;;;;;;;;;0.00;0.00;;;;;25.49;48.75;100915.31;5034028;28;45487;-76
2022/11/09 09:58:27;;;;;;;;;2.67;0.33;;;;;25.51;48.61;100920.59;5032672;28;45407;-74
2022/11/09 10:01:02;;;;;;;;;1.00;1.00;;;;;25.54;48.96;100917.50;5031004;28;45470;-75
2022/11/09 10:03:27;;;;;;;;;0.00;0.00;;;;;25.55;48.80;100919.25;5026723;28;45575;-75
2022/11/09 10:05:58;;;;;;;;;1.00;1.00;;;;;25.57;48.75;100932.63;5028106;28;45359;-75
2022/11/09 10:08:57;;;;;;;;;0.00;0.00;;;;;25.57;49.23;100932.63;5035475;28;46515;-75
2022/11/09 10:11:54;;;;;;;;;2.00;0.00;;;;;25.58;48.95;100947.94;5027307;28;47340;-75
2022/11/09 10:14:30;;;;;;;;;0.00;0.00;;;;;25.57;49.00;100941.63;5025026;28;45563;-76
2022/11/09 10:17:10;;;;;;;;;0.00;0.00;;;;;25.57;48.64;100938.06;5030243;28;45732;-75
2022/11/09 10:19:38;;;;;;;;;0.00;0.00;;;;;25.57;49.09;100941.63;5026820;28;47245;-75
2022/11/09 10:22:18;;;;;;;;;2.67;1.00;;;;;25.59;48.89;100939.56;5025270;28;45700;-74
2022/11/09 10:24:54;;;;;;;;;0.00;0.00;;;;;25.61;49.18;100948.41;5027400;28;45548;-76
2022/11/09 12:46:48;;;;;;;;;1.00;1.00;;;;;19.64;54.37;100992.06;5068626;27;45656;-74
2022/11/09 12:49:39;;;;;;;;;2.33;2.00;;;;;19.80;53.77;100996.06;5064470;27;45549;-75
2022/11/09 12:52:13;;;;;;;;;2.00;1.33;;;;;20.01;53.80;101004.97;5058733;28;45546;-77
2022/11/09 12:54:42;;;;;;;;;4.00;2.00;;;;;20.25;53.38;100998.31;5063650;28;45320;-77
2022/11/09 12:57:13;;;;;;;;;3.00;2.00;;;;;20.52;52.81;100999.44;5063381;27;46208;-78
2022/11/09 12:59:48;;;;;;;;;3.00;1.00;;;;;20.82;52.86;100987.78;5067962;28;45515;-77
2022/11/09 13:02:23;;;;;;;;;2.00;2.00;;;;;21.11;52.64;101003.97;5064732;27;45511;-77
2022/11/09 13:05:05;;;;;;;;;1.00;1.00;;;;;21.39;51.78;101001.31;5057973;28;45624;-78
2022/11/09 13:07:41;;;;;;;;;3.33;1.67;;;;;21.64;51.53;101000.78;5055378;27;46383;-77
2022/11/09 13:10:23;;;;;;;;;4.33;2.33;;;;;21.88;51.12;101004.81;5058479;28;45541;-78
2022/11/09 13:12:49;;;;;;;;;2.00;2.00;;;;;22.11;50.39;101011.50;5055575;28;46582;-74
2022/11/09 13:15:59;;;;;;;;;1.00;1.00;;;;;22.37;50.29;101013.44;5056665;28;46517;-76
2022/11/09 13:18:30;;;;;;;;;2.00;2.00;;;;;22.59;49.73;101002.31;5041279;28;45530;-75
2022/11/09 13:21:15;;;;;;;;;4.67;3.00;;;;;22.77;49.25;101011.28;5042900;28;45612;-75
2022/11/09 13:23:41;;;;;;;;;2.00;2.00;;;;;22.93;49.02;101011.56;5043022;28;45818;-75
2022/11/09 13:26:20;;;;;;;;;2.00;2.00;;;;;23.07;48.84;101013.69;5031494;28;45869;-74
2022/11/09 13:29:07;;;;;;;;;1.67;1.67;;;;;23.20;48.76;101020.53;5044775;28;46353;-75
2022/11/09 13:32:23;;;;;;;;;2.33;2.00;;;;;23.29;48.06;101017.72;5043930;28;45533;-74
2022/11/09 13:34:53;;;;;;;;;1.67;1.67;;;;;23.39;48.09;101019.50;5043403;28;45930;-75
2022/11/09 13:37:39;;;;;;;;;2.33;2.33;;;;;23.47;47.78;101029.53;5041319;28;45559;-74
2022/11/09 13:40:29;;;;;;;;;4.33;1.00;;;;;23.53;47.63;101024.31;5042769;28;45581;-74
2022/11/09 13:43:11;;;;;;;;;3.00;1.00;;;;;23.60;47.51;101024.53;5045201;28;45777;-74
2022/11/09 13:45:43;;;;;;;;;3.00;2.00;;;;;23.65;46.99;101026.72;5044321;28;45879;-74
2022/11/09 13:48:29;;;;;;;;;4.00;3.00;;;;;23.73;47.17;101032.19;5045210;28;45645;-75
2022/11/09 13:51:03;;;;;;;;;4.00;1.33;;;;;23.80;46.50;101033.22;5041615;28;45552;-74
2022/11/09 14:38:33;;;;;;;;;1.00;1.00;;;;;21.17;52.17;101072.72;5100493;27;45391;-74
2022/11/09 14:40:59;;;;;;;;;3.00;2.00;;;;;21.22;52.02;101075.84;5123715;27;45472;-77
2022/11/09 14:43:34;;;;;;;;;1.67;1.67;;;;;21.36;52.04;101079.03;5108575;27;45754;-77
2022/11/09 14:46:01;;;;;;;;;2.00;1.00;;;;;21.54;52.01;101081.88;5109367;27;45501;-77
2022/11/09 14:48:29;;;;;;;;;1.00;1.00;;;;;21.73;52.33;101090.94;5107213;27;45516;-77
2022/11/09 14:50:58;;;;;;;;;5.00;1.67;;;;;21.93;51.85;101094.38;5107252;27;45489;-77
2022/11/09 14:53:30;;;;;;;;;2.00;2.00;;;;;22.16;51.80;101096.69;5106009;27;45702;-77
2022/11/09 14:55:59;;;;;;;;;2.33;1.00;;;;;22.37;51.09;101107.25;5108457;27;45489;-78
2022/11/09 14:58:27;;;;;;;;;5.00;2.00;;;;;22.55;51.15;101110.00;5107032;27;46232;-78
2022/11/09 15:01:21;;;;;;;;;1.00;1.00;;;;;22.74;50.80;101100.03;5107186;27;45867;-77
2022/11/09 15:04:06;;;;;;;;;2.00;2.00;;;;;22.91;50.70;101109.16;5096605;27;45558;-77
2022/11/09 15:06:32;;;;;;;;;2.00;1.00;;;;;23.02;50.54;101119.72;5108330;27;45615;-75
2022/11/09 15:09:07;;;;;;;;;1.00;1.00;;;;;23.14;50.34;101111.38;5105922;27;47200;-75
2022/11/09 15:11:37;;;;;;;;;1.33;1.00;;;;;23.27;50.08;101124.50;5108854;27;45496;-75
2022/11/09 15:14:32;;;;;;;;;1.67;0.00;;;;;23.41;49.82;101128.53;5105784;27;45590;-74
2022/11/09 15:17:19;;;;;;;;;2.00;2.00;;;;;23.51;49.54;101137.41;5109830;27;45371;-74
2022/11/09 15:19:50;;;;;;;;;3.00;1.00;;;;;23.58;49.35;101139.50;5109399;27;45813;-74
2022/11/09 15:22:43;;;;;;;;;3.00;2.33;;;;;23.65;49.58;101137.81;5108282;27;45672;-74
2022/11/09 15:25:27;;;;;;;;;5.00;0.00;;;;;23.72;49.42;101144.31;5105736;27;45514;-74
2022/11/09 15:27:56;;;;;;;;;1.00;1.00;;;;;23.78;49.44;101154.50;5123377;27;45509;-75
2022/11/09 15:30:34;;;;;;;;;3.00;1.00;;;;;23.84;49.36;101142.19;5108220;27;46474;-75
2022/11/09 15:33:10;;;;;;;;;3.00;1.00;;;;;23.89;49.12;101147.97;5105669;27;45414;-75
2022/11/09 15:35:35;;;;;;;;;2.33;2.00;;;;;23.93;49.38;101148.50;5108543;27;45483;-74
2022/11/09 15:38:01;;;;;;;;;1.33;1.33;;;;;24.00;48.94;101148.69;5107851;27;45513;-74
2022/11/09 15:40:26;;;;;;;;;1.00;1.00;;;;;24.04;48.86;101164.47;5108676;27;45643;-76
2022/11/09 15:42:51;;;;;;;;;2.00;0.33;;;;;24.10;49.11;101164.88;5106705;27;46604;-76
2022/11/09 15:45:19;;;;;;;;;0.00;0.00;;;;;24.12;48.62;101163.72;5107537;27;45979;-75
2022/11/09 15:47:53;;;;;;;;;1.00;0.00;;;;;24.20;47.28;101163.72;5106268;27;45531;-76
2022/11/09 15:50:26;;;;;;;;;1.00;1.00;;;;;24.31;46.62;101161.72;5092772;27;46121;-75
2022/11/09 15:52:51;;;;;;;;;1.67;0.33;;;;;24.37;46.35;101163.81;5094279;27;45390;-73
2022/11/09 15:55:23;;;;;;;;;0.67;0.00;;;;;24.43;45.97;101171.28;5092536;27;45485;-74
2022/11/09 15:57:51;;;;;;;;;0.00;0.00;;;;;24.47;45.84;101175.38;5093843;27;45652;-74
2022/11/09 16:00:19;;;;;;;;;0.00;0.00;;;;;24.49;46.03;101180.63;5091836;27;45697;-73
2022/11/09 16:02:44;;;;;;;;;0.00;0.00;;;;;24.50;45.75;101182.34;5092529;27;45422;-73
2022/11/09 16:05:10;;;;;;;;;1.00;1.00;;;;;24.50;45.57;101187.75;5094026;27;45485;-73
2022/11/09 16:07:36;;;;;;;;;0.00;0.00;;;;;24.48;45.47;101184.34;5095256;27;45358;-71
2022/11/09 16:10:01;;;;;;;;;0.00;0.00;;;;;24.48;45.51;101189.78;5093818;27;46151;-73
2022/11/09 16:12:26;;;;;;;;;0.00;0.00;;;;;24.44;45.26;101186.53;5087934;27;45534;-73
2022/11/09 16:14:52;;;;;;;;;1.33;1.33;;;;;24.43;45.55;101194.84;5092871;27;45728;-73
2022/11/09 16:17:17;;;;;;;;;0.67;0.67;;;;;24.38;45.07;101200.78;5091541;27;45388;-76
2022/11/09 16:19:42;;;;;;;;;2.00;0.00;;;;;24.39;45.51;101202.47;5094211;27;46071;-73
2022/11/09 16:22:11;;;;;;;;;2.33;1.00;;;;;24.40;45.17;101206.03;5084242;27;49801;-72
2022/11/09 16:24:36;;;;;;;;;0.00;0.00;;;;;24.36;45.01;101201.94;5079691;27;45426;-73
2022/11/09 16:27:04;;;;;;;;;0.00;0.00;;;;;24.32;45.32;101201.44;5083429;27;45574;-73
2022/11/09 16:29:31;;;;;;;;;1.00;1.00;;;;;24.30;45.23;101211.56;5081365;27;45343;-72
2022/11/09 16:31:56;;;;;;;;;5.33;2.33;;;;;24.30;44.94;101222.44;5078685;27;45418;-72
2022/11/09 16:34:22;;;;;;;;;1.00;1.00;;;;;24.27;44.98;101230.91;5083970;27;45426;-73
2022/11/09 16:36:48;;;;;;;;;2.33;1.67;;;;;24.26;45.10;101231.91;5080648;27;45487;-73
2022/11/09 16:39:15;;;;;;;;;1.00;1.00;;;;;24.23;44.90;101230.34;5095974;27;45346;-73
2022/11/09 16:41:44;;;;;;;;;1.00;1.00;;;;;24.21;45.04;101238.66;5090389;27;45427;-73
2022/11/09 16:44:12;;;;;;;;;0.00;0.00;;;;;24.17;45.15;101250.00;5092441;27;45546;-73
2022/11/09 16:46:40;;;;;;;;;6.00;1.67;;;;;24.13;44.89;101248.63;5095108;27;45448;-73
2022/11/09 16:49:06;;;;;;;;;1.00;0.00;;;;;24.11;44.82;101258.78;5090356;27;46028;-73
2022/11/09 16:51:31;;;;;;;;;1.00;1.00;;;;;24.08;44.93;101265.34;5078394;27;45442;-73
2022/11/09 16:53:56;;;;;;;;;0.00;0.00;;;;;24.04;45.14;101278.34;5086783;27;45462;-72
2022/11/09 16:56:22;;;;;;;;;0.33;0.00;;;;;23.97;45.10;101277.28;5095174;27;45801;-72
2022/11/09 16:58:47;;;;;;;;;2.00;0.00;;;;;23.95;45.04;101287.47;5093284;27;46258;-73
2022/11/09 17:01:12;;;;;;;;;1.67;1.00;;;;;23.95;45.13;101287.47;5098022;27;45645;-73
2022/11/09 17:03:38;;;;;;;;;2.67;1.33;;;;;23.94;45.14;101283.88;5097116;27;45770;-72
2022/11/09 17:06:03;;;;;;;;;0.33;0.33;;;;;23.95;45.06;101290.19;5081981;27;45735;-73
2022/11/09 17:08:28;;;;;;;;;1.00;1.00;;;;;23.93;45.10;101292.19;5094786;27;46644;-72
2022/11/09 17:10:54;;;;;;;;;0.67;0.67;;;;;23.93;44.94;101297.59;5095752;27;48395;-72
2022/11/09 17:13:19;;;;;;;;;1.00;1.00;;;;;23.91;44.94;101316.72;5089791;27;46066;-72
2022/11/09 17:15:48;;;;;;;;;2.00;2.00;;;;;23.89;44.97;101317.88;5093799;27;46003;-73
2022/11/09 17:18:14;;;;;;;;;1.00;1.00;;;;;23.89;45.03;101318.75;5085929;27;45497;-76
2022/11/09 17:20:45;;;;;;;;;2.67;0.00;;;;;23.94;45.24;101326.41;5094627;27;45781;-75
2022/11/09 17:23:11;;;;;;;;;1.00;1.00;;;;;23.98;44.97;101333.22;5092274;27;45468;-74
2022/11/09 17:25:38;;;;;;;;;2.00;2.00;;;;;24.03;44.89;101336.31;5094677;27;45512;-71
2022/11/09 17:28:04;;;;;;;;;1.67;1.00;;;;;24.05;44.77;101344.28;5098037;27;45472;-74
2022/11/09 17:30:30;;;;;;;;;1.33;1.33;;;;;24.07;44.75;101350.38;5094614;27;45485;-72
2022/11/09 17:32:55;;;;;;;;;1.67;1.00;;;;;24.05;45.08;101349.72;5101605;27;45327;-72
2022/11/09 17:35:20;;;;;;;;;4.00;1.67;;;;;24.05;45.08;101352.41;5093386;27;46170;-73
2022/11/09 17:37:47;;;;;;;;;1.00;1.00;;;;;24.02;45.23;101360.84;5091373;27;46104;-73
2022/11/09 17:40:12;;;;;;;;;2.00;2.00;;;;;23.98;45.87;101363.03;5088983;27;45468;-72
2022/11/09 17:42:38;;;;;;;;;0.67;0.67;;;;;23.98;45.36;101373.88;5088721;27;45422;-74
2022/11/09 19:38:12;;;;;;;;;10.00;8.50;;;;;19.01;55.29;101499.59;5097664;27;45483;-76
2022/11/09 19:40:37;;;;;;;;;8.75;8.75;;;;;19.12;55.20;101506.88;5088409;27;46805;-77
2022/11/09 19:43:02;;;;;;;;;9.50;6.50;;;;;19.31;55.31;101505.44;5104809;27;46101;-76
2022/11/09 19:45:27;;;;;;;;;8.50;6.00;;;;;19.56;54.67;101509.72;5101760;27;45442;-78
2022/11/09 19:47:53;;;;;;;;;6.00;5.00;;;;;19.83;54.54;101507.59;5102713;27;56769;-78
2022/11/09 19:50:18;;;;;;;;;7.67;6.00;;;;;20.11;54.23;101511.59;5093642;27;46138;-78
2022/11/09 19:52:43;;;;;;;;;7.67;4.00;;;;;20.38;54.16;101510.28;5108189;27;46670;-78
2022/11/09 19:55:09;;;;;;;;;6.67;6.67;;;;;20.69;53.45;101524.84;5104332;27;49965;-79
2022/11/09 19:57:34;;;;;;;;;5.67;5.67;;;;;20.94;52.94;101515.56;5099776;27;45437;-76
2022/11/09 19:59:59;;;;;;;;;9.33;7.67;;;;;21.18;52.58;101523.34;5100156;27;53587;-77
2022/11/09 20:02:24;;;;;;;;;11.33;6.00;;;;;21.40;52.32;101520.63;5097961;27;45398;-76
2022/11/09 20:04:51;;;;;;;;;8.00;6.33;;;;;21.60;51.94;101532.38;5102255;27;45741;-75
2022/11/09 20:07:17;;;;;;;;;6.00;6.00;;;;;21.80;51.32;101538.72;5102293;27;46054;-75
2022/11/09 20:09:42;;;;;;;;;8.67;8.67;;;;;21.97;51.39;101531.81;5091894;27;45824;-73
2022/11/09 20:15:05;;;;;;;;;11.67;8.00;;;;;22.35;50.91;101552.75;5090992;27;45582;-75
2022/11/09 20:17:30;;;;;;;;;8.67;6.67;;;;;22.49;50.61;101554.19;5102321;27;45467;-75
2022/11/09 20:19:55;;;;;;;;;10.00;7.00;;;;;22.64;50.40;101558.22;5105228;27;45443;-75
2022/11/09 20:22:21;;;;;;;;;6.33;6.33;;;;;22.77;50.05;101557.09;5106641;27;51490;-76
2022/11/09 20:24:46;;;;;;;;;8.00;8.00;;;;;22.88;50.15;101561.47;5103476;27;45724;-74
2022/11/09 20:27:11;;;;;;;;;8.67;7.00;;;;;22.97;49.70;101570.59;5107074;27;64669;-75
2022/11/09 20:29:37;;;;;;;;;6.00;6.00;;;;;23.09;49.94;101584.81;5101753;27;45552;-74
2022/11/09 20:32:02;;;;;;;;;6.00;6.00;;;;;23.16;49.40;101583.22;5104741;27;45426;-74
2022/11/09 20:34:28;;;;;;;;;7.33;7.00;;;;;23.24;49.12;101580.66;5102844;27;45565;-77
2022/11/09 20:36:54;;;;;;;;;8.67;7.33;;;;;23.29;49.05;101591.03;5106890;27;45544;-75
2022/11/09 20:39:19;;;;;;;;;7.33;4.33;;;;;23.37;49.04;101604.72;5104182;27;45600;-76
2022/11/09 20:41:44;;;;;;;;;8.67;8.33;;;;;23.41;48.88;101603.44;5102373;27;48168;-77
2022/11/09 20:44:09;;;;;;;;;8.00;6.00;;;;;23.47;48.70;101606.56;5099931;27;45525;-74
2022/11/09 20:46:35;;;;;;;;;7.33;7.33;;;;;23.51;48.95;101610.69;5105313;27;46167;-74
2022/11/09 20:49:00;;;;;;;;;5.00;5.00;;;;;23.55;48.67;101612.09;5092026;27;52058;-75
2022/11/09 20:51:27;;;;;;;;;8.00;6.67;;;;;23.59;48.71;101620.78;5096520;27;45449;-75
2022/11/09 20:53:52;;;;;;;;;7.67;7.00;;;;;23.63;48.51;101625.75;5089733;27;45410;-77
2022/11/09 20:56:20;;;;;;;;;6.67;5.00;;;;;23.65;48.66;101637.31;5093584;27;52069;-78
2022/11/09 20:58:46;;;;;;;;;7.67;7.33;;;;;23.68;48.11;101625.31;5088860;27;45523;-75
2022/11/09 21:01:17;;;;;;;;;8.00;7.33;;;;;23.70;48.45;101631.44;5092212;27;45741;-76
2022/11/09 21:03:43;;;;;;;;;7.67;6.33;;;;;23.69;48.32;101636.03;5084378;27;45603;-76
2022/11/09 21:06:10;;;;;;;;;7.00;7.00;;;;;23.74;48.35;101648.28;5084151;27;46245;-74
2022/11/09 21:08:35;;;;;;;;;2.67;2.67;;;;;23.77;48.47;101637.97;5073930;27;45536;-73
2022/11/09 21:11:05;;;;;;;;;12.00;9.67;;;;;23.80;48.30;101651.22;5075997;27;50563;-74
2022/11/09 21:13:31;;;;;;;;;6.00;6.00;;;;;23.84;48.46;101656.34;5075841;27;45381;-75
2022/11/09 21:16:08;;;;;;;;;7.33;6.00;;;;;23.85;48.26;101649.94;5074289;28;45505;-76
2022/11/09 21:18:34;;;;;;;;;6.00;6.00;;;;;23.86;48.42;101659.78;5075358;27;46063;-77
2022/11/09 21:21:14;;;;;;;;;7.33;6.33;;;;;23.87;48.22;101659.63;5076631;27;45558;-77
2022/11/09 21:31:55;;;;;;;;;5.67;5.67;;;;;23.89;48.05;101668.47;5069048;27;45554;-73
2022/11/09 21:34:20;;;;;;;;;6.67;6.00;;;;;23.92;48.28;101679.00;5086870;27;45783;-74
2022/11/09 21:36:45;;;;;;;;;8.00;5.67;;;;;23.94;48.21;101684.28;5085752;27;45520;-74
2022/11/09 21:39:10;;;;;;;;;8.00;6.00;;;;;23.96;48.30;101685.00;5086394;27;45741;-75
2022/11/09 21:41:36;;;;;;;;;3.00;3.00;;;;;23.97;48.05;101680.41;5087750;27;46215;-75
2022/11/09 21:44:02;;;;;;;;;5.67;5.33;;;;;23.97;47.98;101689.41;5086307;27;48674;-75
2022/11/09 21:46:28;;;;;;;;;8.33;7.33;;;;;23.97;47.97;101691.25;5084336;27;45779;-76
2022/11/09 21:48:54;;;;;;;;;6.00;6.00;;;;;23.98;48.03;101687.56;5090887;27;45596;-75
2022/11/09 21:51:19;;;;;;;;;6.00;6.00;;;;;23.97;47.91;101692.13;5087551;27;45696;-75
2022/11/09 21:53:45;;;;;;;;;5.67;5.67;;;;;23.98;48.21;101699.25;5073407;27;50022;-75
2022/11/09 21:56:11;;;;;;;;;6.67;6.67;;;;;23.98;48.09;101695.72;5075467;27;46238;-76
2022/11/09 21:58:37;;;;;;;;;7.67;7.00;;;;;23.98;48.05;101703.84;5072831;27;45472;-75
2022/11/09 22:01:04;;;;;;;;;7.00;6.00;;;;;24.01;48.03;101704.38;5072410;27;45546;-74
2022/11/09 22:03:30;;;;;;;;;4.33;4.33;;;;;24.03;48.06;101701.53;5075416;27;45299;-74
2022/11/09 22:05:56;;;;;;;;;7.00;7.00;;;;;24.04;47.86;101705.94;5071918;27;46113;-74
2022/11/09 22:08:21;;;;;;;;;8.00;5.67;;;;;24.04;47.95;101706.78;5075336;27;45384;-74
2022/11/09 22:10:46;;;;;;;;;6.00;6.00;;;;;24.05;47.98;101713.06;5074413;27;45984;-75
2022/11/09 22:16:08;;;;;;;;;6.33;6.33;;;;;24.03;48.11;101718.63;5074518;27;45684;-75
